createdAt,value
2023-04-17T00:00:48.557Z,57.20
2023-04-17T00:03:15.158Z,57.20
2023-04-17T00:05:41.726Z,57.20
2023-04-17T00:08:08.206Z,57.30
2023-04-17T00:10:34.666Z,57.30
2023-04-17T00:13:01.133Z,57.30
2023-04-17T00:15:27.612Z,57.30
2023-04-17T00:17:54.103Z,57.30
2023-04-17T00:20:20.574Z,57.30
2023-04-17T00:22:47.007Z,57.30
2023-04-17T00:25:13.495Z,57.30
2023-04-17T00:27:39.978Z,57.20
2023-04-17T00:30:06.435Z,57.30
2023-04-17T00:32:37.757Z,57.30
2023-04-17T00:35:04.288Z,57.30
2023-04-17T00:37:30.760Z,57.30
2023-04-17T00:39:57.236Z,57.40
2023-04-17T00:42:23.731Z,57.40
2023-04-17T00:44:50.196Z,57.30
2023-04-17T00:47:16.671Z,57.40
2023-04-17T00:49:43.139Z,57.40
2023-04-17T00:52:09.616Z,57.30
2023-04-17T00:54:36.098Z,57.30
2023-04-17T00:57:02.566Z,57.40
2023-04-17T00:59:29.039Z,57.30
2023-04-17T01:01:55.563Z,57.40
2023-04-17T01:04:22.137Z,57.40
2023-04-17T01:06:48.732Z,57.40
2023-04-17T01:09:15.216Z,57.50
2023-04-17T01:11:41.723Z,57.50
2023-04-17T01:14:08.205Z,57.40
2023-04-17T01:16:34.694Z,57.50
2023-04-17T01:19:01.175Z,57.40
2023-04-17T01:21:27.678Z,57.50
2023-04-17T01:23:54.294Z,57.50
2023-04-17T01:26:20.763Z,57.50
2023-04-17T01:28:47.245Z,57.50
2023-04-17T01:31:13.751Z,57.50
2023-04-17T01:33:40.262Z,57.50
2023-04-17T01:36:06.722Z,57.50
2023-04-17T01:38:33.224Z,57.50
2023-04-17T01:40:59.695Z,57.50
2023-04-17T01:43:26.195Z,57.50
2023-04-17T01:45:52.719Z,57.50
2023-04-17T01:48:19.249Z,57.40
2023-04-17T01:50:45.732Z,57.50
2023-04-17T01:53:12.214Z,57.50
2023-04-17T01:55:38.676Z,57.50
2023-04-17T01:58:05.218Z,57.50
2023-04-17T02:00:31.681Z,57.50
2023-04-17T02:02:58.413Z,57.60
2023-04-17T02:05:24.954Z,57.50
2023-04-17T02:07:51.463Z,57.50
2023-04-17T02:10:20.754Z,57.60
2023-04-17T02:12:47.229Z,57.50
2023-04-17T02:15:13.714Z,57.60
2023-04-17T02:17:43.937Z,57.50
2023-04-17T02:20:10.457Z,57.50
2023-04-17T02:22:36.916Z,57.50
2023-04-17T02:25:03.398Z,57.50
2023-04-17T02:27:29.872Z,57.50
2023-04-17T02:29:56.336Z,57.60
2023-04-17T02:32:22.845Z,57.50
2023-04-17T02:34:49.819Z,57.50
2023-04-17T02:37:16.308Z,57.50
2023-04-17T02:39:42.784Z,57.50
2023-04-17T02:42:09.245Z,57.50
2023-04-17T02:44:35.716Z,57.50
2023-04-17T02:47:02.359Z,57.50
2023-04-17T02:49:28.945Z,57.50
2023-04-17T02:51:55.460Z,57.50
2023-04-17T02:54:21.934Z,57.50
2023-04-17T02:56:48.394Z,57.50
2023-04-17T02:59:14.877Z,57.50
2023-04-17T03:01:41.369Z,57.40
2023-04-17T03:04:07.896Z,57.50
2023-04-17T03:06:34.375Z,57.50
2023-04-17T03:09:00.853Z,57.40
2023-04-17T03:11:27.311Z,57.40
2023-04-17T03:13:53.779Z,57.30
2023-04-17T03:16:20.246Z,57.30
2023-04-17T03:18:46.773Z,57.30
2023-04-17T03:21:13.265Z,57.30
2023-04-17T03:23:39.750Z,57.30
2023-04-17T03:26:06.230Z,57.30
2023-04-17T03:28:32.711Z,57.20
2023-04-17T03:30:59.222Z,57.30
2023-04-17T03:33:25.684Z,57.30
2023-04-17T03:35:52.160Z,57.20
2023-04-17T03:38:18.627Z,57.30
2023-04-17T03:40:45.107Z,57.40
2023-04-17T03:43:11.574Z,57.30
2023-04-17T03:45:38.092Z,57.30
2023-04-17T03:48:04.612Z,57.30
2023-04-17T03:50:31.111Z,57.20
2023-04-17T03:52:57.613Z,57.20
2023-04-17T03:55:24.079Z,57.20
2023-04-17T03:57:50.549Z,57.10
2023-04-17T04:00:17.013Z,57.10
2023-04-17T04:02:43.617Z,57.10
2023-04-17T04:05:10.246Z,57.20
2023-04-17T04:07:36.819Z,57.20
2023-04-17T04:10:03.277Z,57.10
2023-04-17T04:12:29.744Z,57.20
2023-04-17T04:14:56.218Z,57.10
2023-04-17T04:17:22.718Z,57.10
2023-04-17T04:19:49.186Z,57.10
2023-04-17T04:22:15.654Z,57.10
2023-04-17T04:24:42.126Z,57.10
2023-04-17T04:27:09.111Z,57.10
2023-04-17T04:29:36.537Z,57.20
2023-04-17T04:32:02.998Z,57.10
2023-04-17T04:34:29.485Z,57.10
2023-04-17T04:36:55.953Z,57.10
2023-04-17T04:39:22.418Z,57.00
2023-04-17T04:41:48.888Z,57.00
2023-04-17T04:44:15.369Z,57.00
2023-04-17T04:46:41.919Z,57.10
2023-04-17T04:49:08.429Z,57.10
2023-04-17T04:51:34.904Z,57.00
2023-04-17T04:54:01.370Z,57.00
2023-04-17T04:56:27.847Z,57.00
2023-04-17T04:58:54.296Z,57.00
2023-04-17T05:01:20.832Z,57.10
2023-04-17T05:03:47.549Z,57.00
2023-04-17T05:06:14.097Z,57.10
2023-04-17T05:08:40.561Z,57.00
2023-04-17T05:11:07.054Z,57.00
2023-04-17T05:13:33.557Z,57.00
2023-04-17T05:16:01.610Z,57.00
2023-04-17T05:18:28.456Z,57.00
2023-04-17T05:20:54.939Z,57.10
2023-04-17T05:23:21.415Z,57.00
2023-04-17T05:25:47.876Z,57.00
2023-04-17T05:28:15.542Z,57.00
2023-04-17T05:30:43.374Z,56.90
2023-04-17T05:33:09.889Z,57.00
2023-04-17T05:35:36.413Z,57.00
2023-04-17T05:38:02.899Z,57.10
2023-04-17T05:40:29.377Z,57.00
2023-04-17T05:42:55.859Z,57.00
2023-04-17T05:45:24.924Z,56.90
2023-04-17T05:47:52.126Z,56.90
2023-04-17T05:50:18.646Z,56.90
2023-04-17T05:52:45.423Z,56.90
2023-04-17T05:55:11.917Z,56.90
2023-04-17T05:57:38.400Z,56.90
2023-04-17T06:00:04.849Z,56.90
2023-04-17T06:02:31.462Z,56.90
2023-04-17T06:04:58.285Z,56.90
2023-04-17T06:07:25.030Z,56.90
2023-04-17T06:09:51.506Z,56.90
2023-04-17T06:12:17.970Z,56.90
2023-04-17T06:14:44.430Z,56.90
2023-04-17T06:17:10.970Z,56.90
2023-04-17T06:19:37.467Z,56.90
2023-04-17T06:22:08.034Z,56.80
2023-04-17T06:24:34.520Z,56.80
2023-04-17T06:27:01.003Z,56.80
2023-04-17T06:29:27.472Z,56.80
2023-04-17T06:31:53.942Z,56.80
2023-04-17T06:34:20.423Z,56.80
2023-04-17T06:36:46.888Z,56.70
2023-04-17T06:39:13.542Z,56.80
2023-04-17T06:41:40.164Z,56.80
2023-04-17T06:44:06.616Z,56.80
2023-04-17T06:46:33.203Z,56.70
2023-04-17T06:48:59.682Z,56.80
2023-04-17T06:51:26.153Z,56.80
2023-04-17T06:53:52.630Z,56.80
2023-04-17T06:56:19.121Z,56.80
2023-04-17T06:58:45.640Z,56.90
2023-04-17T07:01:14.108Z,56.80
2023-04-17T07:03:41.078Z,56.80
2023-04-17T07:06:07.681Z,56.90
2023-04-17T07:08:34.175Z,56.90
2023-04-17T07:11:00.662Z,56.90
2023-04-17T07:13:27.131Z,57.00
2023-04-17T07:15:53.706Z,57.00
2023-04-17T07:18:20.250Z,57.00
2023-04-17T07:20:46.708Z,57.00
2023-04-17T07:23:13.199Z,57.00
2023-04-17T07:25:39.655Z,57.00
2023-04-17T07:28:08.124Z,57.00
2023-04-17T07:30:34.598Z,56.90
2023-04-17T07:33:01.164Z,56.90
2023-04-17T07:35:27.643Z,56.90
2023-04-17T07:37:54.114Z,56.80
2023-04-17T07:40:20.608Z,56.90
2023-04-17T07:42:47.085Z,56.90
2023-04-17T07:45:13.580Z,56.80
2023-04-17T07:47:40.079Z,57.00
2023-04-17T07:50:06.569Z,56.90
2023-04-17T07:52:33.043Z,56.90
2023-04-17T07:54:59.519Z,56.90
2023-04-17T07:57:26.006Z,56.90
2023-04-17T07:59:52.467Z,57.00
2023-04-17T08:02:20.599Z,56.90
2023-04-17T08:04:50.165Z,56.90
2023-04-17T08:07:16.721Z,56.90
2023-04-17T08:09:44.016Z,56.90
2023-04-17T08:12:10.653Z,56.90
2023-04-17T08:14:37.141Z,56.90
2023-04-17T08:17:03.687Z,56.90
2023-04-17T08:19:30.159Z,56.90
2023-04-17T08:21:56.645Z,56.90
2023-04-17T08:24:23.127Z,56.90
2023-04-17T08:26:49.609Z,56.80
2023-04-17T08:29:16.222Z,56.90
2023-04-17T08:31:42.766Z,56.90
2023-04-17T08:34:14.265Z,56.80
2023-04-17T08:36:41.642Z,56.90
2023-04-17T08:39:08.115Z,56.80
2023-04-17T08:41:34.598Z,56.90
2023-04-17T08:44:01.082Z,56.80
2023-04-17T08:46:27.613Z,56.90
2023-04-17T08:48:54.108Z,57.00
2023-04-17T08:51:20.593Z,57.00
2023-04-17T08:53:47.063Z,57.00
2023-04-17T08:56:13.521Z,57.00
2023-04-17T08:58:40.009Z,57.00
2023-04-17T09:01:06.493Z,56.90
2023-04-17T09:03:33.163Z,56.80
2023-04-17T09:05:59.753Z,56.90
2023-04-17T09:08:26.294Z,56.80
2023-04-17T09:10:52.790Z,56.80
2023-04-17T09:13:19.282Z,56.80
2023-04-17T09:15:45.799Z,56.70
2023-04-17T09:18:12.407Z,56.60
2023-04-17T09:20:38.926Z,56.60
2023-04-17T09:23:05.423Z,56.40
2023-04-17T09:25:31.907Z,56.50
2023-04-17T09:27:58.400Z,56.50
2023-04-17T09:30:24.879Z,56.50
2023-04-17T09:32:51.394Z,56.50
2023-04-17T09:35:17.894Z,56.50
2023-04-17T09:37:44.382Z,56.50
2023-04-17T09:40:10.848Z,56.50
2023-04-17T09:42:37.312Z,56.30
2023-04-17T09:45:03.774Z,56.30
2023-04-17T09:47:30.265Z,56.20
2023-04-17T09:49:56.750Z,56.20
2023-04-17T09:52:23.227Z,56.20
2023-04-17T09:54:49.707Z,56.20
2023-04-17T09:57:16.180Z,56.10
2023-04-17T09:59:42.648Z,55.90
2023-04-17T10:02:09.266Z,55.80
2023-04-17T10:04:35.813Z,55.80
2023-04-17T10:07:02.285Z,55.90
2023-04-17T10:09:28.764Z,55.90
2023-04-17T10:11:55.230Z,55.90
2023-04-17T10:14:21.701Z,55.90
2023-04-17T10:16:48.274Z,56.00
2023-04-17T10:19:14.877Z,56.00
2023-04-17T10:21:41.333Z,56.00
2023-04-17T10:24:07.814Z,56.00
2023-04-17T10:26:34.267Z,56.00
2023-04-17T10:29:00.765Z,56.00
2023-04-17T10:31:27.275Z,56.00
2023-04-17T10:33:53.789Z,56.00
2023-04-17T10:36:20.254Z,56.00
2023-04-17T10:38:46.715Z,56.00
2023-04-17T10:41:13.174Z,55.90
2023-04-17T10:43:39.651Z,55.90
2023-04-17T10:46:06.171Z,55.90
2023-04-17T10:48:32.758Z,55.90
2023-04-17T10:50:59.289Z,55.80
2023-04-17T10:53:25.759Z,55.70
2023-04-17T10:55:52.253Z,55.70
2023-04-17T10:58:18.733Z,55.40
2023-04-17T11:00:45.200Z,55.10
2023-04-17T11:03:11.715Z,55.20
2023-04-17T11:05:38.233Z,55.20
2023-04-17T11:08:04.730Z,55.30
2023-04-17T11:10:31.227Z,55.20
2023-04-17T11:12:57.701Z,55.30
2023-04-17T11:15:24.170Z,55.30
2023-04-17T11:17:50.715Z,55.20
2023-04-17T11:20:17.208Z,55.30
2023-04-17T11:22:43.657Z,55.20
2023-04-17T11:25:10.133Z,55.00
2023-04-17T11:27:36.597Z,54.40
2023-04-17T11:30:03.077Z,54.80
2023-04-17T11:32:29.614Z,54.90
2023-04-17T11:34:56.112Z,54.90
2023-04-17T11:37:22.612Z,55.00
2023-04-17T11:39:49.197Z,54.80
2023-04-17T11:42:15.678Z,54.60
2023-04-17T11:44:42.156Z,54.70
2023-04-17T11:47:08.635Z,54.80
2023-04-17T11:49:35.117Z,54.70
2023-04-17T11:52:01.611Z,54.70
2023-04-17T11:54:28.123Z,54.70
2023-04-17T11:56:54.584Z,54.80
2023-04-17T11:59:21.076Z,54.80
2023-04-17T12:01:47.524Z,54.70
2023-04-17T12:04:14.334Z,54.60
2023-04-17T12:06:41.418Z,54.80
2023-04-17T12:09:07.912Z,54.70
2023-04-17T12:11:34.434Z,54.60
2023-04-17T12:14:00.964Z,54.60
2023-04-17T12:16:27.557Z,54.60
2023-04-17T12:18:54.083Z,54.70
2023-04-17T12:21:20.584Z,54.60
2023-04-17T12:23:47.067Z,54.60
2023-04-17T12:26:13.543Z,54.60
2023-04-17T12:28:40.028Z,54.60
2023-04-17T12:31:06.532Z,54.70
2023-04-17T12:33:36.015Z,54.60
2023-04-17T12:36:02.547Z,54.40
2023-04-17T12:38:29.065Z,54.50
2023-04-17T12:40:56.361Z,54.60
2023-04-17T12:43:22.828Z,54.50
2023-04-17T12:45:49.380Z,54.50
2023-04-17T12:48:15.881Z,54.50
2023-04-17T12:50:42.403Z,54.50
2023-04-17T12:53:08.930Z,54.50
2023-04-17T12:55:35.440Z,54.50
2023-04-17T12:58:01.938Z,54.50
2023-04-17T13:00:28.448Z,54.50
2023-04-17T13:02:55.061Z,54.50
2023-04-17T13:05:21.663Z,54.50
2023-04-17T13:07:48.122Z,54.50
2023-04-17T13:10:14.650Z,54.60
2023-04-17T13:12:41.115Z,54.60
2023-04-17T13:15:07.631Z,54.50
2023-04-17T13:17:34.150Z,54.50
2023-04-17T13:20:00.675Z,54.50
2023-04-17T13:22:27.164Z,54.50
2023-04-17T13:24:53.630Z,54.50
2023-04-17T13:27:20.110Z,54.60
2023-04-17T13:29:46.560Z,54.50
2023-04-17T13:32:14.383Z,54.50
2023-04-17T13:34:40.860Z,54.50
2023-04-17T13:37:07.333Z,54.50
2023-04-17T13:39:33.798Z,54.40
2023-04-17T13:42:00.273Z,54.30
2023-04-17T13:44:26.748Z,54.20
2023-04-17T13:46:53.262Z,54.10
2023-04-17T13:49:19.802Z,54.10
2023-04-17T13:51:46.283Z,54.20
2023-04-17T13:54:12.754Z,54.20
2023-04-17T13:56:39.245Z,54.20
2023-04-17T13:59:05.725Z,54.10
2023-04-17T14:01:32.261Z,54.20
2023-04-17T14:03:58.910Z,54.10
2023-04-17T14:06:25.541Z,54.10
2023-04-17T14:08:52.018Z,54.10
2023-04-17T14:11:18.503Z,54.10
2023-04-17T14:13:44.981Z,54.00
2023-04-17T14:16:11.557Z,53.90
2023-04-17T14:18:38.050Z,53.80
2023-04-17T14:21:04.519Z,53.80
2023-04-17T14:23:31.006Z,53.70
2023-04-17T14:25:57.476Z,53.70
2023-04-17T14:28:23.964Z,53.60
2023-04-17T14:30:50.434Z,53.50
2023-04-17T14:33:16.915Z,53.40
2023-04-17T14:35:43.377Z,53.50
2023-04-17T14:38:09.837Z,53.40
2023-04-17T14:40:36.342Z,53.40
2023-04-17T14:43:02.801Z,53.50
2023-04-17T14:45:29.267Z,53.20
2023-04-17T14:47:55.747Z,53.40
2023-04-17T14:50:22.226Z,53.30
2023-04-17T14:52:48.719Z,53.30
2023-04-17T14:55:15.195Z,53.30
2023-04-17T14:57:41.686Z,53.10
2023-04-17T15:00:08.156Z,53.00
2023-04-17T15:02:34.717Z,53.00
2023-04-17T15:05:01.264Z,52.90
2023-04-17T15:07:27.745Z,52.90
2023-04-17T15:09:56.319Z,52.70
2023-04-17T15:12:22.960Z,52.60
2023-04-17T15:14:49.438Z,52.70
2023-04-17T15:17:15.957Z,52.60
2023-04-17T15:19:42.421Z,52.60
2023-04-17T15:22:08.912Z,52.30
2023-04-17T15:24:35.353Z,52.30
2023-04-17T15:27:01.828Z,52.30
2023-04-17T15:29:28.306Z,52.40
2023-04-17T15:31:54.855Z,52.30
2023-04-17T15:34:26.694Z,52.10
2023-04-17T15:36:53.167Z,52.20
2023-04-17T15:39:19.692Z,52.10
2023-04-17T15:41:46.382Z,52.10
2023-04-17T15:44:12.904Z,51.80
2023-04-17T15:46:39.536Z,51.90
2023-04-17T15:49:09.137Z,51.90
2023-04-17T15:51:35.931Z,51.70
2023-04-17T15:54:02.427Z,51.60
2023-04-17T15:56:28.909Z,51.40
2023-04-17T15:58:55.392Z,51.50
2023-04-17T16:01:21.990Z,51.40
2023-04-17T16:03:48.649Z,51.50
2023-04-17T16:06:15.243Z,51.00
2023-04-17T16:08:41.715Z,51.20
2023-04-17T16:11:08.181Z,51.20
2023-04-17T16:13:34.679Z,51.20
2023-04-17T16:16:01.204Z,51.10
2023-04-17T16:18:27.752Z,51.00
2023-04-17T16:20:54.242Z,51.10
2023-04-17T16:23:20.714Z,51.00
2023-04-17T16:25:47.179Z,51.30
2023-04-17T16:28:14.527Z,51.20
2023-04-17T16:30:40.998Z,51.20
2023-04-17T16:33:07.461Z,51.10
2023-04-17T16:35:33.908Z,51.00
2023-04-17T16:38:00.404Z,50.70
2023-04-17T16:40:26.848Z,50.60
2023-04-17T16:42:53.321Z,50.50
2023-04-17T16:45:19.800Z,50.40
2023-04-17T16:47:46.370Z,50.50
2023-04-17T16:50:12.975Z,50.40
2023-04-17T16:52:39.495Z,50.40
2023-04-17T16:55:05.983Z,50.30
2023-04-17T16:57:32.457Z,50.40
2023-04-17T16:59:58.947Z,50.50
2023-04-17T17:02:25.463Z,50.40
2023-04-17T17:04:52.055Z,50.30
2023-04-17T17:07:18.576Z,50.20
2023-04-17T17:09:45.049Z,50.20
2023-04-17T17:12:11.541Z,50.10
2023-04-17T17:14:38.004Z,50.30
2023-04-17T17:17:04.488Z,50.20
2023-04-17T17:19:30.963Z,50.20
2023-04-17T17:21:57.430Z,50.10
2023-04-17T17:24:26.589Z,50.00
2023-04-17T17:26:53.062Z,50.10
2023-04-17T17:29:19.533Z,50.10
2023-04-17T17:31:46.057Z,50.00
2023-04-17T17:36:42.007Z,50.10
2023-04-17T17:39:08.498Z,50.00
2023-04-17T17:41:34.964Z,50.00
2023-04-17T17:44:01.444Z,49.90
2023-04-17T17:46:27.960Z,50.10
2023-04-17T17:48:54.537Z,49.90
2023-04-17T17:51:21.012Z,49.80
2023-04-17T17:53:47.517Z,49.90
2023-04-17T17:56:14.004Z,50.00
2023-04-17T17:58:40.502Z,49.80
2023-04-17T18:01:07.033Z,49.90
2023-04-17T18:03:33.696Z,50.00
2023-04-17T18:06:00.268Z,50.10
2023-04-17T18:08:26.769Z,50.20
2023-04-17T18:10:53.233Z,50.10
2023-04-17T18:13:20.611Z,50.20
2023-04-17T18:15:47.102Z,50.20
2023-04-17T18:18:13.605Z,50.00
2023-04-17T18:20:40.072Z,50.10
2023-04-17T18:23:06.553Z,50.10
2023-04-17T18:25:33.030Z,50.20
2023-04-17T18:27:59.497Z,50.10
2023-04-17T18:30:26.000Z,50.20
2023-04-17T18:32:52.493Z,50.30
2023-04-17T18:35:19.014Z,50.40
2023-04-17T18:37:45.492Z,50.30
2023-04-17T18:40:11.965Z,50.30
2023-04-17T18:42:38.414Z,50.40
2023-04-17T18:45:04.944Z,50.40
2023-04-17T18:47:31.469Z,50.50
2023-04-17T18:49:57.939Z,50.50
2023-04-17T18:52:24.418Z,50.50
2023-04-17T18:54:50.909Z,50.60
2023-04-17T18:57:17.391Z,50.60
2023-04-17T18:59:43.883Z,50.60
2023-04-17T19:02:10.426Z,50.70
2023-04-17T19:04:36.968Z,50.80
2023-04-17T19:07:03.431Z,50.70
2023-04-17T19:09:29.910Z,50.80
2023-04-17T19:11:56.374Z,50.80
2023-04-17T19:14:22.838Z,50.80
2023-04-17T19:16:49.431Z,50.90
2023-04-17T19:19:16.103Z,50.90
2023-04-17T19:21:42.591Z,50.90
2023-04-17T19:24:09.119Z,50.90
2023-04-17T19:26:35.592Z,51.00
2023-04-17T19:29:02.118Z,51.00
2023-04-17T19:31:28.656Z,51.00
2023-04-17T19:33:55.199Z,51.00
2023-04-17T19:36:21.694Z,50.90
2023-04-17T19:38:48.212Z,50.90
2023-04-17T19:41:15.030Z,51.00
2023-04-17T19:43:41.684Z,50.90
2023-04-17T19:46:08.163Z,50.90
2023-04-17T19:48:34.654Z,51.00
2023-04-17T19:51:01.122Z,50.90
2023-04-17T19:53:27.608Z,50.90
2023-04-17T19:55:54.091Z,50.80
2023-04-17T19:58:20.568Z,50.90
2023-04-17T20:00:47.128Z,50.90
2023-04-17T20:03:13.826Z,51.00
2023-04-17T20:05:44.706Z,50.90
2023-04-17T20:08:11.203Z,50.80
2023-04-17T20:10:37.665Z,50.60
2023-04-17T20:13:04.162Z,50.70
2023-04-17T20:15:32.742Z,50.30
2023-04-17T20:18:02.771Z,50.10
2023-04-17T20:20:33.193Z,50.10
2023-04-17T20:23:00.631Z,50.40
2023-04-17T20:25:27.131Z,50.60
2023-04-17T20:27:53.585Z,50.60
2023-04-17T20:30:20.047Z,50.60
2023-04-17T20:32:46.563Z,50.60
2023-04-17T20:35:13.105Z,50.60
2023-04-17T20:37:39.556Z,50.60
2023-04-17T20:40:06.043Z,50.50
2023-04-17T20:42:32.692Z,50.50
2023-04-17T20:44:59.198Z,50.20
2023-04-17T20:47:25.785Z,50.30
2023-04-17T20:49:52.329Z,50.40
2023-04-17T20:52:18.792Z,50.20
2023-04-17T20:54:45.272Z,50.30
2023-04-17T20:57:11.764Z,50.20
2023-04-17T20:59:38.259Z,50.20
2023-04-17T21:02:04.817Z,49.90
2023-04-17T21:04:31.385Z,50.00
2023-04-17T21:06:58.341Z,50.10
2023-04-17T21:09:24.814Z,50.20
2023-04-17T21:11:51.274Z,50.20
2023-04-17T21:14:17.722Z,50.20
2023-04-17T21:16:44.191Z,50.10
2023-04-17T21:19:10.649Z,50.10
2023-04-17T21:21:37.103Z,50.10
2023-04-17T21:24:03.554Z,49.90
2023-04-17T21:26:30.007Z,50.10
2023-04-17T21:28:56.473Z,50.10
2023-04-17T21:31:22.985Z,50.00
2023-04-17T21:33:49.489Z,50.10
2023-04-17T21:36:15.962Z,50.10
2023-04-17T21:38:42.428Z,50.10
2023-04-17T21:41:08.910Z,50.00
2023-04-17T21:43:35.380Z,49.90
2023-04-17T21:46:01.874Z,50.00
2023-04-17T21:48:28.423Z,49.90
2023-04-17T21:50:54.898Z,49.70
2023-04-17T21:53:21.377Z,49.70
2023-04-17T21:55:47.884Z,49.70
2023-04-17T21:58:14.340Z,49.70
2023-04-17T22:00:40.936Z,49.70
2023-04-17T22:03:07.461Z,49.50
2023-04-17T22:05:34.019Z,49.60
2023-04-17T22:08:00.506Z,49.60
2023-04-17T22:10:27.009Z,49.40
2023-04-17T22:12:53.470Z,49.60
2023-04-17T22:15:19.961Z,49.50
2023-04-17T22:17:46.604Z,49.50
2023-04-17T22:20:13.253Z,49.40
2023-04-17T22:22:39.730Z,49.60
2023-04-17T22:25:06.216Z,49.60
2023-04-17T22:27:32.674Z,49.50
2023-04-17T22:29:59.183Z,49.30
2023-04-17T22:32:25.691Z,49.40
2023-04-17T22:34:52.282Z,49.00
2023-04-17T22:37:18.770Z,49.20
2023-04-17T22:39:45.248Z,49.20
2023-04-17T22:42:11.713Z,49.30
2023-04-17T22:44:38.194Z,49.20
2023-04-17T22:47:04.684Z,49.20
2023-04-17T22:49:31.136Z,49.00
2023-04-17T22:51:57.603Z,49.10
2023-04-17T22:54:25.258Z,49.10
2023-04-17T22:56:51.896Z,48.90
2023-04-17T22:59:18.373Z,49.00
2023-04-17T23:01:44.892Z,49.00
2023-04-17T23:04:15.201Z,48.90
2023-04-17T23:06:41.859Z,48.90
2023-04-17T23:09:08.324Z,48.70
2023-04-17T23:11:34.784Z,48.80
2023-04-17T23:14:01.244Z,48.70
2023-04-17T23:16:27.725Z,48.70
2023-04-17T23:18:56.833Z,48.60
2023-04-17T23:21:23.333Z,48.60
2023-04-17T23:23:49.842Z,48.60
2023-04-17T23:26:16.314Z,48.60
2023-04-17T23:28:42.803Z,48.20
2023-04-17T23:31:09.277Z,48.40
2023-04-17T23:33:35.834Z,48.40
2023-04-17T23:36:02.317Z,48.30
2023-04-17T23:38:28.789Z,47.90
2023-04-17T23:40:55.282Z,48.30
2023-04-17T23:43:21.753Z,48.20
2023-04-17T23:45:48.263Z,48.10
2023-04-17T23:48:14.729Z,47.90
2023-04-17T23:50:41.203Z,48.00
2023-04-17T23:53:07.690Z,47.80
2023-04-17T23:55:34.151Z,48.00
2023-04-17T23:58:00.633Z,48.00
